Time;durP1;ratioP1;P1;durP2;ratioP2;P2;SDS_P1;SDS_P2;PMS_P1;PMS_P2;Temp;Humidity;BMP_temperature;BMP_pressure;BME280_temperature;BME280_humidity;BME280_pressure;Samples;Min_cycle;Max_cycle;Signal;HPM_P1;HPM_P2
2021/10/11 00:00:42;;;;;;;18.10;10.20;;;;;;;0.90;77.26;101491.70;94632;1192;97565;-64
2021/10/11 00:02:59;;;;;;;17.10;10.70;;;;;;;0.93;77.29;101496.98;94638;1192;87698;-70
2021/10/11 00:05:07;;;;;;;19.80;11.30;;;;;;;0.96;77.34;101496.80;94658;1191;93128;-70
2021/10/11 00:07:16;;;;;;;18.30;10.90;;;;;;;0.99;77.41;101495.67;94650;1192;78454;-70
2021/10/11 00:09:24;;;;;;;18.40;10.90;;;;;;;1.02;77.45;101490.55;94645;1192;81870;-71
2021/10/11 00:11:31;;;;;;;14.70;9.70;;;;;;;1.01;77.50;101492.21;94631;1192;97682;-71
2021/10/11 00:13:42;;;;;;;18.20;10.60;;;;;;;1.01;77.48;101488.48;94659;1192;88475;-71
2021/10/11 00:15:49;;;;;;;15.60;9.90;;;;;;;0.98;77.55;101492.39;94659;1193;95086;-73
2021/10/11 00:17:57;;;;;;;18.90;10.10;;;;;;;0.97;77.62;101489.48;94647;1192;78930;-71
2021/10/11 00:20:06;;;;;;;20.40;10.70;;;;;;;0.96;77.52;101486.64;94640;1192;81947;-71
2021/10/11 00:22:13;;;;;;;18.00;11.00;;;;;;;0.97;77.64;101485.91;94655;1192;97352;-72
2021/10/11 00:24:21;;;;;;;16.90;10.30;;;;;;;0.97;77.70;101490.36;94666;1192;88229;-71
2021/10/11 00:26:28;;;;;;;21.80;10.90;;;;;;;0.96;77.44;101485.76;94656;1191;94137;-70
2021/10/11 00:28:38;;;;;;;16.30;10.90;;;;;;;0.93;77.47;101482.83;94624;1192;77869;-71
2021/10/11 00:30:46;;;;;;;18.80;11.60;;;;;;;0.88;77.41;101482.41;94658;1191;81854;-71
2021/10/11 00:32:53;;;;;;;17.60;11.40;;;;;;;0.85;77.26;101476.06;94632;1192;98164;-72
2021/10/11 00:35:01;;;;;;;21.40;12.40;;;;;;;0.79;77.40;101474.67;94658;1192;87227;-71
2021/10/11 00:37:09;;;;;;;20.70;13.10;;;;;;;0.73;77.31;101476.54;94640;1192;93681;-72
2021/10/11 00:39:16;;;;;;;21.40;12.80;;;;;;;0.68;77.29;101470.28;94652;1193;81125;-72
2021/10/11 00:41:31;;;;;;;23.70;13.10;;;;;;;0.62;77.20;101465.35;94633;1191;81305;-71
2021/10/11 00:43:39;;;;;;;20.70;11.80;;;;;;;0.53;77.39;101459.00;94611;1192;98134;-71
2021/10/11 00:45:46;;;;;;;21.80;13.00;;;;;;;0.48;77.41;101459.52;94669;1192;88619;-71
2021/10/11 00:47:54;;;;;;;21.40;13.30;;;;;;;0.45;77.53;101455.13;94632;1193;93410;-63
2021/10/11 00:50:06;;;;;;;24.40;12.90;;;;;;;0.43;77.62;101446.94;94678;1192;79836;-63
2021/10/11 00:52:13;;;;;;;21.70;12.20;;;;;;;0.40;77.60;101443.59;94679;1192;80530;-72
2021/10/11 00:54:25;;;;;;;22.10;12.70;;;;;;;0.37;77.51;101437.73;94662;1191;97029;-70
2021/10/11 00:56:33;;;;;;;21.80;13.20;;;;;;;0.35;77.67;101436.79;94599;1192;86084;-63
2021/10/11 00:58:40;;;;;;;21.00;11.80;;;;;;;0.33;77.55;101431.25;94646;1192;92817;-64
2021/10/11 01:00:48;;;;;;;24.20;12.20;;;;;;;0.33;77.67;101424.01;94637;1191;80210;-64
2021/10/11 01:02:56;;;;;;;19.20;12.10;;;;;;;0.35;77.80;101427.27;94616;1193;82057;-72
2021/10/11 01:05:03;;;;;;;19.70;11.00;;;;;;;0.36;77.95;101425.02;94668;1191;97734;-72
2021/10/11 01:07:11;;;;;;;18.90;11.70;;;;;;;0.38;77.94;101423.55;94665;1191;88513;-64
2021/10/11 01:09:19;;;;;;;17.90;10.90;;;;;;;0.37;77.84;101424.31;94625;1193;93916;-64
2021/10/11 01:11:26;;;;;;;16.90;11.20;;;;;;;0.36;77.86;101419.75;94681;1192;79232;-64
2021/10/11 01:13:34;;;;;;;18.70;11.70;;;;;;;0.36;77.84;101421.87;94661;1193;79598;-66
2021/10/11 01:15:41;;;;;;;20.60;12.40;;;;;;;0.37;77.78;101417.19;94657;1192;97432;-64
2021/10/11 01:17:49;;;;;;;21.10;11.70;;;;;;;0.35;77.90;101409.56;94674;1193;86558;-64
2021/10/11 01:20:01;;;;;;;21.90;12.60;;;;;;;0.29;77.73;101406.41;94649;1192;93324;-67
2021/10/11 01:22:11;;;;;;;20.30;12.90;;;;;;;0.26;77.73;101402.14;94657;1193;79093;-65
2021/10/11 01:24:19;;;;;;;22.60;12.40;;;;;;;0.21;77.74;101400.17;94667;1192;82051;-64
2021/10/11 01:26:37;;;;;;;19.70;12.60;;;;;;;0.19;77.77;101394.85;94657;1193;98276;-64
2021/10/11 01:28:44;;;;;;;21.30;12.70;;;;;;;0.18;77.79;101393.11;94673;1192;87908;-64
2021/10/11 01:30:53;;;;;;;19.80;12.60;;;;;;;0.20;77.95;101385.89;94682;1193;93941;-63
2021/10/11 01:33:01;;;;;;;21.50;12.40;;;;;;;0.20;77.93;101387.49;94664;1191;78700;-75
2021/10/11 01:35:11;;;;;;;18.90;11.90;;;;;;;0.22;77.94;101381.20;94652;1192;81750;-72
2021/10/11 01:37:18;;;;;;;20.20;12.20;;;;;;;0.20;77.91;101383.95;94687;1192;96970;-73
2021/10/11 01:39:25;;;;;;;20.40;12.20;;;;;;;0.21;77.86;101383.56;94638;1193;88253;-74
2021/10/11 01:41:36;;;;;;;20.40;11.30;;;;;;;0.22;78.02;101384.73;94648;1193;94827;-65
2021/10/11 01:43:44;;;;;;;19.70;11.70;;;;;;;0.22;77.97;101378.17;94657;1193;80325;-65
2021/10/11 01:45:54;;;;;;;21.30;12.40;;;;;;;0.21;78.03;101376.13;94663;1193;80732;-66
2021/10/11 01:48:02;;;;;;;23.10;13.10;;;;;;;0.21;78.08;101377.17;94650;1193;97390;-75
2021/10/11 01:50:10;;;;;;;19.80;11.80;;;;;;;0.21;78.07;101379.14;94653;1192;87441;-73
2021/10/11 01:52:18;;;;;;;19.50;11.90;;;;;;;0.20;78.03;101374.02;94647;1192;92517;-72
2021/10/11 01:54:25;;;;;;;21.00;12.40;;;;;;;0.20;78.09;101370.52;94663;1193;80816;-72
2021/10/11 01:56:33;;;;;;;19.90;12.30;;;;;;;0.14;78.13;101366.25;94707;1192;80601;-64
2021/10/11 01:58:40;;;;;;;21.80;12.30;;;;;;;0.14;78.12;101365.41;94665;1191;97043;-63
2021/10/11 02:00:47;;;;;;;24.20;13.20;;;;;;;0.13;77.93;101363.38;94684;1192;87467;-65
2021/10/11 02:02:55;;;;;;;19.50;11.90;;;;;;;0.13;78.01;101366.91;94668;1192;93491;-62
2021/10/11 02:05:03;;;;;;;21.40;12.00;;;;;;;0.11;78.04;101361.69;94666;1193;78475;-67
2021/10/11 02:07:10;;;;;;;21.20;12.30;;;;;;;0.14;78.23;101357.27;94670;1193;81641;-75
2021/10/11 02:09:19;;;;;;;20.60;13.60;;;;;;;0.15;78.19;101356.30;94644;1192;97934;-75
2021/10/11 02:11:28;;;;;;;21.80;12.60;;;;;;;0.16;78.14;101353.73;94659;1192;88159;-65
2021/10/11 02:13:36;;;;;;;24.80;13.40;;;;;;;0.20;78.20;101354.19;94661;1193;95173;-64
2021/10/11 02:15:47;;;;;;;23.10;11.80;;;;;;;0.25;78.11;101350.15;94651;1193;80279;-64
2021/10/11 02:17:56;;;;;;;18.30;12.20;;;;;;;0.28;78.30;101348.55;94624;1191;82571;-73
2021/10/11 02:20:06;;;;;;;21.10;13.20;;;;;;;0.32;78.27;101344.02;94684;1192;98547;-72
2021/10/11 02:22:13;;;;;;;20.70;13.70;;;;;;;0.32;78.17;101340.08;94685;1192;87564;-64
2021/10/11 02:24:23;;;;;;;20.60;12.00;;;;;;;0.30;78.31;101337.58;94645;1192;94467;-64
2021/10/11 02:26:31;;;;;;;19.60;12.00;;;;;;;0.27;78.06;101336.02;94629;1193;78893;-68
2021/10/11 02:28:41;;;;;;;22.60;12.50;;;;;;;0.30;78.21;101330.83;94621;1192;80631;-71
2021/10/11 02:30:49;;;;;;;23.30;12.30;;;;;;;0.33;78.34;101327.11;94685;1192;97067;-73
2021/10/11 02:32:56;;;;;;;20.30;12.40;;;;;;;0.36;78.16;101324.09;94607;1192;88495;-70
2021/10/11 02:35:04;;;;;;;22.40;12.80;;;;;;;0.39;78.35;101322.43;94648;1192;94103;-71
2021/10/11 02:37:12;;;;;;;23.70;13.30;;;;;;;0.42;78.18;101316.20;94646;1192;78947;-71
2021/10/11 02:39:19;;;;;;;21.00;12.90;;;;;;;0.45;78.30;101315.67;94654;1193;81785;-71
2021/10/11 02:41:27;;;;;;;22.90;13.70;;;;;;;0.48;78.29;101310.15;94653;1192;98392;-70
2021/10/11 02:43:35;;;;;;;21.40;13.20;;;;;;;0.49;78.30;101309.58;94634;1192;87933;-71
2021/10/11 02:45:42;;;;;;;23.10;13.60;;;;;;;0.45;78.19;101308.59;94619;1193;94999;-71
2021/10/11 02:47:49;;;;;;;23.20;13.60;;;;;;;0.45;78.16;101306.31;94619;1192;79391;-64
2021/10/11 02:49:57;;;;;;;21.50;13.70;;;;;;;0.45;78.12;101302.20;94651;1193;82439;-63
2021/10/11 02:52:05;;;;;;;18.90;12.30;;;;;;;0.40;78.24;101295.66;94681;1192;98007;-63
2021/10/11 02:54:16;;;;;;;23.30;13.70;;;;;;;0.35;78.24;101297.41;94648;1193;87982;-64
2021/10/11 02:56:24;;;;;;;20.90;12.90;;;;;;;0.32;78.15;101298.50;94623;1192;93750;-71
2021/10/11 02:58:34;;;;;;;20.70;12.70;;;;;;;0.30;78.09;101300.73;94610;1193;79825;-72
2021/10/11 03:00:42;;;;;;;22.30;12.90;;;;;;;0.26;78.14;101300.13;94671;1191;80119;-71
2021/10/11 03:02:49;;;;;;;19.60;11.90;;;;;;;0.25;78.04;101299.65;94635;1192;98249;-72
2021/10/11 03:04:57;;;;;;;20.20;11.90;;;;;;;0.26;78.16;101299.95;94636;1192;87364;-72
2021/10/11 03:07:05;;;;;;;23.00;12.00;;;;;;;0.24;78.40;101298.51;94612;1192;92444;-71
2021/10/11 03:09:15;;;;;;;18.30;11.80;;;;;;;0.19;78.36;101295.81;94644;1193;80182;-71
2021/10/11 03:11:22;;;;;;;20.20;12.60;;;;;;;0.15;78.40;101294.71;94665;1192;80803;-64
2021/10/11 03:13:31;;;;;;;19.80;12.40;;;;;;;0.10;78.36;101298.34;94633;1192;98176;-64
2021/10/11 03:15:38;;;;;;;20.00;12.50;;;;;;;0.07;78.31;101300.38;94676;1191;87768;-64
2021/10/11 03:17:45;;;;;;;21.60;13.00;;;;;;;0.03;78.44;101295.45;94619;1193;93679;-64
2021/10/11 03:19:56;;;;;;;20.00;12.80;;;;;;;0.01;78.46;101294.00;94637;1192;80281;-64
2021/10/11 03:22:04;;;;;;;20.00;12.50;;;;;;;-0.01;78.52;101292.89;94652;1192;81926;-63
2021/10/11 03:24:11;;;;;;;19.70;12.20;;;;;;;-0.04;78.53;101289.36;94628;1193;97569;-62
2021/10/11 03:26:19;;;;;;;20.90;13.00;;;;;;;-0.07;78.41;101280.39;94672;1192;86791;-63
2021/10/11 03:28:27;;;;;;;21.50;13.80;;;;;;;-0.11;78.59;101277.77;94642;1193;93488;-63
2021/10/11 03:30:34;;;;;;;21.50;13.10;;;;;;;-0.13;78.48;101269.46;94643;1191;79143;-64
2021/10/11 03:32:42;;;;;;;21.30;12.30;;;;;;;-0.16;78.54;101261.15;94608;1192;81556;-71
2021/10/11 03:34:50;;;;;;;21.10;13.30;;;;;;;-0.18;78.54;101261.08;94666;1192;97710;-72
2021/10/11 03:36:58;;;;;;;19.90;11.70;;;;;;;-0.17;78.66;101250.97;94657;1192;87651;-71
2021/10/11 03:39:06;;;;;;;21.10;12.70;;;;;;;-0.17;78.75;101250.61;94617;1192;94217;-71
2021/10/11 03:41:14;;;;;;;23.50;13.00;;;;;;;-0.14;78.78;101250.36;94642;1193;81060;-68
2021/10/11 03:43:21;;;;;;;25.00;14.90;;;;;;;-0.12;78.81;101246.16;94656;1191;81714;-72
2021/10/11 03:45:29;;;;;;;22.70;13.60;;;;;;;-0.11;78.94;101248.40;94644;1192;98151;-72
2021/10/11 03:47:39;;;;;;;20.10;12.80;;;;;;;-0.13;78.82;101245.75;94642;1191;86896;-64
2021/10/11 03:49:46;;;;;;;24.00;14.10;;;;;;;-0.16;78.88;101240.80;94652;1192;94540;-64
2021/10/11 03:51:54;;;;;;;24.90;13.60;;;;;;;-0.19;78.83;101240.42;94635;1193;79109;-64
2021/10/11 03:54:02;;;;;;;25.90;14.20;;;;;;;-0.21;78.73;101236.13;94649;1193;81358;-64
2021/10/11 03:56:12;;;;;;;21.40;14.60;;;;;;;-0.23;78.79;101236.80;94652;1191;97461;-62
2021/10/11 03:58:20;;;;;;;25.80;13.80;;;;;;;-0.27;78.95;101234.05;94614;1193;87724;-63
2021/10/11 04:00:32;;;;;;;24.50;14.10;;;;;;;-0.33;78.79;101228.14;94627;1193;94355;-61
2021/10/11 04:02:40;;;;;;;22.30;13.20;;;;;;;-0.38;78.84;101227.35;94639;1192;79582;-76
2021/10/11 04:04:48;;;;;;;24.50;13.10;;;;;;;-0.39;78.62;101223.89;94632;1193;81786;-77
2021/10/11 04:07:01;;;;;;;26.00;14.50;;;;;;;-0.40;78.87;101222.01;94611;1192;97974;-63
2021/10/11 04:09:08;;;;;;;29.30;14.10;;;;;;;-0.42;78.93;101224.43;94638;1193;88410;-64
2021/10/11 04:11:23;;;;;;;24.60;14.00;;;;;;;-0.44;79.05;101223.02;94687;1192;94576;-64
2021/10/11 04:13:30;;;;;;;25.30;14.60;;;;;;;-0.47;78.85;101220.38;94606;1192;80104;-64
2021/10/11 04:15:41;;;;;;;24.40;13.60;;;;;;;-0.47;79.00;101220.05;94619;1193;81977;-63
2021/10/11 04:17:49;;;;;;;24.80;13.90;;;;;;;-0.48;79.18;101219.36;94647;1193;98498;-77
2021/10/11 04:19:56;;;;;;;24.00;14.10;;;;;;;-0.48;79.28;101218.52;94653;1193;86538;-77
2021/10/11 04:22:07;;;;;;;26.30;15.00;;;;;;;-0.47;79.29;101220.02;94599;1192;94115;-77
2021/10/11 04:24:14;;;;;;;24.00;14.10;;;;;;;-0.41;79.14;101225.28;94641;1193;77328;-77
2021/10/11 04:26:22;;;;;;;22.90;13.80;;;;;;;-0.41;79.24;101223.19;94640;1192;82005;-76
2021/10/11 04:28:29;;;;;;;22.20;13.90;;;;;;;-0.41;79.12;101219.45;94638;1192;97076;-78
2021/10/11 04:30:41;;;;;;;20.80;13.80;;;;;;;-0.45;79.10;101218.27;94665;1193;86921;-77
2021/10/11 04:32:48;;;;;;;21.60;13.80;;;;;;;-0.47;79.17;101218.96;94613;1192;94887;-78
2021/10/11 04:34:56;;;;;;;22.60;13.50;;;;;;;-0.50;79.23;101210.86;94629;1192;79590;-78
2021/10/11 04:37:03;;;;;;;25.20;14.20;;;;;;;-0.55;79.10;101204.27;94646;1193;82369;-62
2021/10/11 04:39:14;;;;;;;21.50;13.20;;;;;;;-0.55;78.97;101201.12;94654;1192;96879;-63
2021/10/11 04:41:21;;;;;;;24.20;13.90;;;;;;;-0.55;79.15;101200.71;94623;1193;86709;-78
2021/10/11 04:43:29;;;;;;;26.80;14.20;;;;;;;-0.50;79.20;101198.98;94605;1192;92638;-78
2021/10/11 04:45:37;;;;;;;25.10;14.90;;;;;;;-0.46;79.17;101195.20;94641;1193;79144;-77
2021/10/11 04:47:45;;;;;;;24.40;14.80;;;;;;;-0.43;79.18;101195.88;94640;1192;81861;-77
2021/10/11 04:49:52;;;;;;;24.30;13.80;;;;;;;-0.36;79.11;101195.02;94661;1192;96276;-77
2021/10/11 04:51:59;;;;;;;27.50;14.50;;;;;;;-0.34;79.16;101193.86;94606;1192;87893;-79
2021/10/11 04:54:10;;;;;;;27.30;15.40;;;;;;;-0.30;79.10;101194.33;94682;1191;92961;-80
2021/10/11 04:56:17;;;;;;;50.80;17.10;;;;;;;-0.29;79.08;101197.61;94636;1192;81182;-65
2021/10/11 04:58:25;;;;;;;26.50;14.80;;;;;;;-0.30;79.12;101196.80;94617;1192;81430;-65
2021/10/11 05:00:34;;;;;;;28.90;15.20;;;;;;;-0.34;79.28;101198.81;94645;1192;97627;-69
2021/10/11 05:02:42;;;;;;;23.80;15.00;;;;;;;-0.31;79.08;101196.86;94628;1192;88086;-65
2021/10/11 05:04:49;;;;;;;27.70;15.90;;;;;;;-0.30;79.16;101199.23;94651;1192;93549;-65
2021/10/11 05:06:56;;;;;;;22.50;14.40;;;;;;;-0.29;79.25;101194.60;94646;1193;77684;-81
2021/10/11 05:09:04;;;;;;;24.70;15.20;;;;;;;-0.29;79.22;101194.95;94639;1192;82248;-85
2021/10/11 05:11:14;;;;;;;27.70;14.00;;;;;;;-0.25;79.03;101193.78;94663;1192;98213;-73
2021/10/11 05:13:22;;;;;;;25.40;15.00;;;;;;;-0.26;79.12;101186.58;94685;1192;87943;-87
2021/10/11 05:15:30;;;;;;;26.90;15.50;;;;;;;-0.29;79.10;101187.12;94648;1192;95276;-83
2021/10/11 05:17:38;;;;;;;25.10;14.40;;;;;;;-0.30;79.23;101194.10;94636;1192;80508;-69
2021/10/11 05:19:46;;;;;;;24.80;15.30;;;;;;;-0.31;79.15;101198.42;94677;1192;82058;-65
2021/10/11 05:21:54;;;;;;;25.20;14.30;;;;;;;-0.30;79.13;101198.71;94659;1193;97660;-66
2021/10/11 05:24:01;;;;;;;29.60;14.90;;;;;;;-0.29;79.24;101196.20;94691;1192;87097;-66
2021/10/11 05:26:09;;;;;;;24.60;14.00;;;;;;;-0.28;79.22;101198.73;94623;1192;92899;-64
2021/10/11 05:28:17;;;;;;;24.20;14.00;;;;;;;-0.28;79.30;101199.83;94642;1192;78063;-71
2021/10/11 05:30:25;;;;;;;24.60;14.10;;;;;;;-0.27;79.25;101199.76;94689;1193;82639;-72
2021/10/11 05:32:33;;;;;;;24.80;15.20;;;;;;;-0.27;79.37;101191.94;94645;1192;97407;-61
2021/10/11 05:34:40;;;;;;;22.70;13.00;;;;;;;-0.24;79.36;101185.94;94661;1192;85731;-67
2021/10/11 05:36:48;;;;;;;27.10;14.30;;;;;;;-0.22;79.36;101185.26;94602;1192;94741;-61
2021/10/11 05:38:59;;;;;;;23.80;14.30;;;;;;;-0.15;79.35;101184.29;94651;1193;79357;-63
2021/10/11 05:41:06;;;;;;;28.40;16.00;;;;;;;-0.00;79.48;101185.19;94657;1192;81780;-65
2021/10/11 05:43:17;;;;;;;26.10;14.90;;;;;;;0.29;79.47;101179.84;94634;1193;97662;-80
2021/10/11 05:45:25;;;;;;;25.10;14.00;;;;;;;0.39;79.49;101178.58;94649;1193;87626;-83
2021/10/11 05:47:32;;;;;;;25.10;14.40;;;;;;;0.45;79.39;101175.66;94619;1192;94284;-79
2021/10/11 05:49:40;;;;;;;24.20;15.00;;;;;;;0.50;79.22;101172.69;94631;1192;78722;-79
2021/10/11 05:51:50;;;;;;;27.40;15.60;;;;;;;0.54;79.35;101170.48;94640;1192;82178;-79
2021/10/11 05:53:57;;;;;;;24.70;14.90;;;;;;;0.62;79.32;101167.09;94637;1192;97421;-80
2021/10/11 05:56:06;;;;;;;24.80;15.80;;;;;;;0.69;79.21;101164.48;94675;1192;86575;-80
2021/10/11 05:58:16;;;;;;;23.70;14.30;;;;;;;0.78;79.24;101163.29;94655;1193;93058;-81
2021/10/11 06:00:24;;;;;;;26.40;14.60;;;;;;;1.02;79.26;101162.96;94640;1191;80194;-80
2021/10/11 06:02:32;;;;;;;23.20;14.70;;;;;;;1.33;79.44;101163.54;94661;1192;81294;-63
2021/10/11 06:04:39;;;;;;;22.40;14.70;;;;;;;1.66;79.60;101158.77;94631;1193;98129;-64
2021/10/11 06:06:47;;;;;;;23.70;15.20;;;;;;;1.94;79.51;101155.21;94676;1193;88030;-80
2021/10/11 06:08:54;;;;;;;27.30;15.20;;;;;;;2.24;79.32;101156.24;94633;1192;93458;-80
2021/10/11 06:11:02;;;;;;;25.40;15.10;;;;;;;2.57;79.08;101153.30;94677;1192;81072;-80
2021/10/11 06:13:09;;;;;;;28.80;15.20;;;;;;;2.83;78.90;101150.86;94640;1193;82552;-80
2021/10/11 06:15:17;;;;;;;22.10;14.00;;;;;;;3.07;78.88;101154.14;94630;1193;97269;-79
2021/10/11 06:17:24;;;;;;;25.30;15.90;;;;;;;3.28;78.69;101155.23;94634;1192;87674;-64
2021/10/11 06:19:31;;;;;;;22.90;14.90;;;;;;;3.42;78.33;101156.25;94648;1193;94184;-64
2021/10/11 06:21:39;;;;;;;22.30;14.70;;;;;;;3.50;78.08;101158.21;94619;1193;77922;-80
2021/10/11 06:23:47;;;;;;;20.90;14.10;;;;;;;3.57;77.79;101158.73;94628;1193;82142;-80
2021/10/11 06:25:54;;;;;;;22.00;14.50;;;;;;;3.62;77.72;101160.27;94657;1192;97452;-80
2021/10/11 06:28:02;;;;;;;28.50;15.40;;;;;;;3.69;77.58;101157.95;94629;1192;88619;-64
2021/10/11 06:30:12;;;;;;;22.20;13.80;;;;;;;3.71;77.24;101156.35;94628;1193;92558;-64
2021/10/11 06:32:19;;;;;;;22.70;15.40;;;;;;;3.68;77.22;101155.11;94625;1192;77044;-64
2021/10/11 06:34:27;;;;;;;24.60;14.90;;;;;;;3.67;76.85;101155.41;94634;1191;79582;-64
2021/10/11 06:36:35;;;;;;;26.40;17.60;;;;;;;3.69;76.94;101158.05;94623;1193;97934;-80
2021/10/11 06:38:43;;;;;;;28.50;16.70;;;;;;;3.76;76.90;101157.31;94675;1193;88909;-81
2021/10/11 06:40:52;;;;;;;40.10;21.90;;;;;;;3.85;76.90;101153.89;94695;1193;93262;-80
2021/10/11 06:42:59;;;;;;;38.50;21.90;;;;;;;3.91;76.84;101149.98;94668;1192;80805;-63
2021/10/11 06:45:09;;;;;;;38.50;21.80;;;;;;;4.00;76.83;101148.27;94665;1192;82141;-64
2021/10/11 06:47:16;;;;;;;35.20;21.20;;;;;;;4.20;76.87;101143.43;94650;1191;97767;-64
2021/10/11 06:49:27;;;;;;;39.60;22.60;;;;;;;4.53;77.17;101144.64;94650;1192;87776;-64
2021/10/11 06:51:34;;;;;;;43.50;24.40;;;;;;;4.69;76.95;101146.30;94633;1192;94600;-80
2021/10/11 06:53:41;;;;;;;38.70;22.50;;;;;;;4.88;76.76;101149.45;94637;1192;78621;-79
2021/10/11 06:55:49;;;;;;;34.60;20.50;;;;;;;5.04;76.68;101149.09;94684;1193;80591;-80
2021/10/11 06:57:59;;;;;;;31.00;18.10;;;;;;;5.21;76.55;101153.80;94638;1192;98050;-64
2021/10/11 07:00:09;;;;;;;30.50;17.30;;;;;;;5.43;76.27;101155.21;94668;1192;87006;-64
2021/10/11 07:02:17;;;;;;;27.30;17.50;;;;;;;5.66;76.12;101152.89;94654;1192;94258;-79
2021/10/11 07:04:25;;;;;;;26.10;16.50;;;;;;;5.87;75.98;101148.80;94620;1193;79414;-79
2021/10/11 07:06:33;;;;;;;26.20;15.80;;;;;;;6.05;75.93;101143.58;94632;1192;81905;-66
2021/10/11 07:08:40;;;;;;;26.20;15.70;;;;;;;6.10;75.58;101143.14;94626;1192;97472;-64
2021/10/11 07:10:47;;;;;;;24.80;15.20;;;;;;;6.07;74.88;101140.73;94642;1192;86959;-64
2021/10/11 07:12:58;;;;;;;25.50;16.40;;;;;;;6.02;74.84;101140.15;94629;1192;94617;-77
2021/10/11 07:15:07;;;;;;;29.50;16.20;;;;;;;5.98;74.84;101140.66;94647;1192;78069;-81
2021/10/11 07:17:15;;;;;;;25.00;15.60;;;;;;;5.97;74.83;101134.52;94667;1193;80666;-81
2021/10/11 07:19:22;;;;;;;24.00;14.90;;;;;;;5.99;74.91;101131.67;94656;1192;98204;-80
2021/10/11 07:21:29;;;;;;;26.10;15.80;;;;;;;6.15;74.64;101124.21;94640;1193;87348;-72
2021/10/11 07:23:38;;;;;;;25.30;15.40;;;;;;;6.55;74.47;101124.37;94637;1192;94101;-73
2021/10/11 07:25:45;;;;;;;23.30;14.90;;;;;;;6.98;74.26;101117.82;94660;1193;81220;-73
2021/10/11 07:27:53;;;;;;;27.50;17.10;;;;;;;7.18;73.86;101117.83;94642;1193;81489;-72
2021/10/11 07:30:04;;;;;;;28.60;17.70;;;;;;;7.52;73.91;101110.14;94639;1192;97887;-71
2021/10/11 07:32:11;;;;;;;22.40;15.50;;;;;;;7.92;74.11;101106.96;94637;1192;88065;-61
2021/10/11 07:34:22;;;;;;;23.20;16.10;;;;;;;8.89;73.85;101105.04;94636;1192;92309;-61
2021/10/11 07:36:30;;;;;;;24.00;16.20;;;;;;;10.07;72.56;101098.58;94638;1192;80142;-61
2021/10/11 07:38:37;;;;;;;24.90;16.30;;;;;;;10.43;71.31;101097.77;94653;1193;82363;-66
2021/10/11 07:40:45;;;;;;;25.70;15.80;;;;;;;10.45;70.41;101095.56;94638;1192;97530;-65
2021/10/11 07:42:52;;;;;;;22.40;15.90;;;;;;;10.52;69.81;101095.65;94630;1192;87455;-79
2021/10/11 07:45:02;;;;;;;21.60;14.80;;;;;;;10.75;69.26;101091.77;94629;1193;94420;-78
2021/10/11 07:47:10;;;;;;;22.50;14.60;;;;;;;10.89;68.24;101088.52;94614;1192;79937;-66
2021/10/11 07:49:17;;;;;;;20.40;14.50;;;;;;;10.96;67.97;101088.80;94650;1192;80086;-66
2021/10/11 07:51:25;;;;;;;20.90;14.30;;;;;;;11.07;67.23;101084.83;94634;1192;97918;-66
2021/10/11 07:53:32;;;;;;;19.60;13.10;;;;;;;11.65;66.82;101076.75;94652;1192;87524;-66
2021/10/11 07:55:40;;;;;;;19.50;13.90;;;;;;;12.71;65.62;101074.94;94652;1192;94159;-67
2021/10/11 07:57:47;;;;;;;18.90;14.10;;;;;;;13.51;64.76;101073.89;94662;1193;80371;-68
2021/10/11 07:59:55;;;;;;;23.00;14.50;;;;;;;14.56;63.07;101064.13;94687;1193;82285;-68
2021/10/11 08:02:02;;;;;;;19.00;13.40;;;;;;;15.44;60.44;101061.36;94596;1192;98117;-66
2021/10/11 08:04:09;;;;;;;21.30;14.60;;;;;;;16.86;59.74;101056.59;94671;1192;87531;-66
2021/10/11 08:06:17;;;;;;;24.10;14.20;;;;;;;18.35;57.81;101053.33;94665;1192;94835;-68
2021/10/11 08:08:24;;;;;;;24.70;14.30;;;;;;;19.29;54.71;101050.10;94612;1190;78098;-66
2021/10/11 08:10:33;;;;;;;22.10;13.20;;;;;;;19.61;53.34;101047.00;94633;1192;82205;-66
2021/10/11 08:12:41;;;;;;;23.30;14.20;;;;;;;19.29;52.12;101045.64;94633;1192;98121;-67
2021/10/11 08:14:48;;;;;;;24.00;14.90;;;;;;;18.62;50.94;101043.88;94670;1193;86180;-67
2021/10/11 08:16:56;;;;;;;20.10;13.30;;;;;;;18.10;50.61;101039.65;94646;1192;94877;-80
2021/10/11 08:19:03;;;;;;;19.70;13.60;;;;;;;17.53;50.37;101041.10;94631;1192;78856;-79
2021/10/11 08:21:19;;;;;;;21.40;12.70;;;;;;;17.01;50.21;101042.30;94672;1192;82401;-80
2021/10/11 08:23:27;;;;;;;21.10;12.80;;;;;;;16.74;50.10;101037.59;94626;1192;97876;-67
2021/10/11 08:25:38;;;;;;;19.80;13.20;;;;;;;16.59;49.87;101037.38;94659;1192;88634;-67
2021/10/11 08:27:45;;;;;;;18.60;12.80;;;;;;;16.30;49.71;101032.64;94614;1192;94933;-67
2021/10/11 08:29:53;;;;;;;21.20;12.80;;;;;;;15.89;49.59;101034.11;94660;1192;80208;-68
2021/10/11 08:32:01;;;;;;;22.90;14.20;;;;;;;15.26;49.04;101034.59;94622;1192;82241;-66
2021/10/11 08:34:11;;;;;;;22.60;13.70;;;;;;;15.04;49.46;101028.96;94645;1192;98514;-66
2021/10/11 08:36:19;;;;;;;20.20;12.30;;;;;;;15.06;49.60;101028.09;94617;1192;88333;-66
2021/10/11 08:38:31;;;;;;;17.40;12.30;;;;;;;15.23;49.14;101020.70;94593;1193;94294;-68
2021/10/11 08:40:38;;;;;;;23.20;12.90;;;;;;;15.68;48.92;101023.23;94631;1193;79632;-67
2021/10/11 08:42:47;;;;;;;17.80;11.90;;;;;;;16.29;48.58;101016.92;94629;1192;82416;-67
2021/10/11 08:44:54;;;;;;;62.60;17.10;;;;;;;16.83;48.37;101014.05;94598;1192;97514;-66
2021/10/11 08:47:02;;;;;;;28.30;13.60;;;;;;;17.70;48.10;101005.93;94615;1193;88038;-67
2021/10/11 08:49:13;;;;;;;18.30;12.30;;;;;;;18.30;47.33;101000.69;94590;1192;94865;-68
2021/10/11 08:51:21;;;;;;;18.10;11.80;;;;;;;18.93;46.12;100996.50;94624;1193;77830;-67
2021/10/11 08:53:32;;;;;;;20.00;12.40;;;;;;;19.44;45.51;100991.39;94637;1192;80873;-67
2021/10/11 08:55:57;;;;;;;17.00;12.30;;;;;;;20.23;44.09;100984.02;94994;1180;96674;-67
2021/10/11 08:58:07;;;;;;;18.40;12.00;;;;;;;20.19;43.17;100979.24;94186;1193;88905;-67
2021/10/11 09:00:19;;;;;;;17.80;12.30;;;;;;;20.73;43.17;100976.15;94208;1193;92470;-67
2021/10/11 09:02:26;;;;;;;17.60;12.90;;;;;;;21.29;42.41;100977.77;94195;1193;79696;-68
2021/10/11 09:04:37;;;;;;;16.40;12.20;;;;;;;21.90;42.05;100972.14;94235;1190;81582;-68
2021/10/11 09:07:03;;;;;;;21.90;12.80;;;;;;;22.11;40.99;100972.27;94190;1196;98055;-75
2021/10/11 09:09:13;;;;;;;20.60;12.70;;;;;;;22.32;39.91;100967.16;94244;1194;87816;-78
2021/10/11 09:11:57;;;;;;;24.00;13.00;;;;;;;22.58;39.59;100963.13;92360;1207;616267;-65
2021/10/11 09:14:26;;;;;;;17.80;12.30;;;;;;;22.85;38.71;100961.82;93784;1189;91036;-66
2021/10/11 09:16:34;;;;;;;16.90;12.10;;;;;;;23.06;37.96;100961.25;93192;1193;94818;-68
2021/10/11 09:18:48;;;;;;;16.10;12.20;;;;;;;23.24;37.77;100955.23;93187;1193;113784;-68
2021/10/11 09:20:56;;;;;;;18.60;13.50;;;;;;;23.25;37.06;100954.95;93290;1191;102053;-67
2021/10/11 09:23:03;;;;;;;20.40;13.70;;;;;;;23.53;36.58;100951.69;93279;1191;111482;-67
2021/10/11 09:25:15;;;;;;;18.50;12.70;;;;;;;23.58;36.02;100950.85;93330;1194;91364;-68
2021/10/11 09:27:23;;;;;;;22.00;12.60;;;;;;;23.47;35.64;100952.09;93347;1193;95401;-67
2021/10/11 09:29:35;;;;;;;18.00;12.70;;;;;;;23.38;35.62;100952.09;93287;1197;113711;-68
2021/10/11 09:31:48;;;;;;;15.30;12.00;;;;;;;23.60;35.03;100950.92;93331;1195;102084;-67
2021/10/11 09:34:04;;;;;;;19.40;12.70;;;;;;;23.10;33.49;100947.42;93286;1200;111391;-75
2021/10/11 09:36:19;;;;;;;16.90;12.30;;;;;;;22.57;34.19;100944.17;93248;1195;92050;-77
2021/10/11 09:41:02;;;;;;;18.80;13.00;;;;;;;23.12;34.02;100944.23;93854;1191;113742;-67
2021/10/11 09:43:16;;;;;;;18.10;12.00;;;;;;;23.16;33.49;100939.48;93392;1191;103533;-75
2021/10/11 09:45:26;;;;;;;17.00;12.30;;;;;;;22.36;33.08;100934.89;93399;1191;111309;-66
2021/10/11 09:47:37;;;;;;;16.80;11.10;;;;;;;21.77;33.42;100933.13;93504;1192;91529;-66
2021/10/11 09:49:45;;;;;;;16.50;10.90;;;;;;;21.74;33.86;100932.96;93498;1191;95867;-71
2021/10/11 09:51:54;;;;;;;19.90;11.20;;;;;;;21.06;33.65;100937.92;93382;1195;115098;-75